sensor_id;sensor_type;location;lat;lon;timestamp;temperature;humidity
10543;DHT22;5320;50.046;10.314;2022-07-10T00:02:16;15.60;99.90
10543;DHT22;5320;50.046;10.314;2022-07-10T00:04:42;15.60;99.90
10543;DHT22;5320;50.046;10.314;2022-07-10T00:07:08;15.60;99.90
10543;DHT22;5320;50.046;10.314;2022-07-10T00:09:34;15.60;99.90
10543;DHT22;5320;50.046;10.314;2022-07-10T00:12:00;15.60;99.90
10543;DHT22;5320;50.046;10.314;2022-07-10T00:14:25;15.70;99.90
10543;DHT22;5320;50.046;10.314;2022-07-10T00:16:51;15.60;99.90
10543;DHT22;5320;50.046;10.314;2022-07-10T00:19:17;15.60;99.90
10543;DHT22;5320;50.046;10.314;2022-07-10T00:21:43;15.50;99.90
10543;DHT22;5320;50.046;10.314;2022-07-10T00:24:08;15.50;99.90
10543;DHT22;5320;50.046;10.314;2022-07-10T00:26:36;15.50;99.90
10543;DHT22;5320;50.046;10.314;2022-07-10T00:29:01;15.50;99.90
10543;DHT22;5320;50.046;10.314;2022-07-10T00:31:27;15.40;99.90
10543;DHT22;5320;50.046;10.314;2022-07-10T00:33:53;15.40;99.90
10543;DHT22;5320;50.046;10.314;2022-07-10T00:36:18;15.30;99.90
10543;DHT22;5320;50.046;10.314;2022-07-10T00:38:44;15.30;99.90
10543;DHT22;5320;50.046;10.314;2022-07-10T00:41:10;15.30;99.90
10543;DHT22;5320;50.046;10.314;2022-07-10T00:43:56;15.30;99.90
10543;DHT22;5320;50.046;10.314;2022-07-10T00:46:24;15.20;99.90
10543;DHT22;5320;50.046;10.314;2022-07-10T00:48:50;15.20;99.90
10543;DHT22;5320;50.046;10.314;2022-07-10T00:51:17;15.10;99.90
10543;DHT22;5320;50.046;10.314;2022-07-10T00:53:48;15.10;99.90
10543;DHT22;5320;50.046;10.314;2022-07-10T00:56:16;15.00;99.90
10543;DHT22;5320;50.046;10.314;2022-07-10T00:58:43;15.00;99.90
10543;DHT22;5320;50.046;10.314;2022-07-10T01:01:10;14.90;99.90
10543;DHT22;5320;50.046;10.314;2022-07-10T01:03:36;14.90;99.90
10543;DHT22;5320;50.046;10.314;2022-07-10T01:06:03;14.90;99.90
10543;DHT22;5320;50.046;10.314;2022-07-10T01:08:29;14.80;99.90
10543;DHT22;5320;50.046;10.314;2022-07-10T01:10:55;14.80;99.90
10543;DHT22;5320;50.046;10.314;2022-07-10T01:13:21;14.70;99.90
10543;DHT22;5320;50.046;10.314;2022-07-10T01:15:47;14.70;99.90
10543;DHT22;5320;50.046;10.314;2022-07-10T01:18:14;14.60;99.90
10543;DHT22;5320;50.046;10.314;2022-07-10T01:20:40;14.60;99.90
10543;DHT22;5320;50.046;10.314;2022-07-10T01:23:06;14.50;99.90
10543;DHT22;5320;50.046;10.314;2022-07-10T01:25:32;14.50;99.90
10543;DHT22;5320;50.046;10.314;2022-07-10T01:27:58;14.50;99.90
10543;DHT22;5320;50.046;10.314;2022-07-10T01:30:25;14.50;99.90
10543;DHT22;5320;50.046;10.314;2022-07-10T01:32:51;14.50;99.90
10543;DHT22;5320;50.046;10.314;2022-07-10T01:35:18;14.40;99.90
10543;DHT22;5320;50.046;10.314;2022-07-10T01:37:44;14.40;99.90
10543;DHT22;5320;50.046;10.314;2022-07-10T01:40:10;14.30;99.90
10543;DHT22;5320;50.046;10.314;2022-07-10T01:42:38;14.30;99.90
10543;DHT22;5320;50.046;10.314;2022-07-10T01:45:13;14.20;99.90
10543;DHT22;5320;50.046;10.314;2022-07-10T01:47:41;14.20;99.90
10543;DHT22;5320;50.046;10.314;2022-07-10T01:50:09;14.10;99.90
10543;DHT22;5320;50.046;10.314;2022-07-10T01:52:34;14.10;99.90
10543;DHT22;5320;50.046;10.314;2022-07-10T01:55:00;14.10;81.10
10543;DHT22;5320;50.046;10.314;2022-07-10T01:57:26;14.20;26.10
10543;DHT22;5320;50.046;10.314;2022-07-10T01:59:52;14.10;13.10
10543;DHT22;5320;50.046;10.314;2022-07-10T02:02:18;14.10;10.20
10543;DHT22;5320;50.046;10.314;2022-07-10T02:04:44;14.10;1.00
10543;DHT22;5320;50.046;10.314;2022-07-10T02:07:16;14.20;1.00
10543;DHT22;5320;50.046;10.314;2022-07-10T02:09:43;14.20;1.00
10543;DHT22;5320;50.046;10.314;2022-07-10T02:12:10;14.10;1.00
10543;DHT22;5320;50.046;10.314;2022-07-10T02:14:37;14.10;1.00
10543;DHT22;5320;50.046;10.314;2022-07-10T02:17:07;14.00;1.00
10543;DHT22;5320;50.046;10.314;2022-07-10T02:19:34;13.90;1.00
10543;DHT22;5320;50.046;10.314;2022-07-10T02:22:00;13.90;1.00
10543;DHT22;5320;50.046;10.314;2022-07-10T02:24:26;13.90;1.00
10543;DHT22;5320;50.046;10.314;2022-07-10T02:26:52;13.80;1.00
10543;DHT22;5320;50.046;10.314;2022-07-10T02:29:18;13.80;1.00
10543;DHT22;5320;50.046;10.314;2022-07-10T02:31:44;13.80;1.00
10543;DHT22;5320;50.046;10.314;2022-07-10T02:34:11;13.70;1.00
10543;DHT22;5320;50.046;10.314;2022-07-10T02:36:38;13.70;1.00
10543;DHT22;5320;50.046;10.314;2022-07-10T02:39:05;13.70;1.00
10543;DHT22;5320;50.046;10.314;2022-07-10T02:41:31;13.70;1.00
10543;DHT22;5320;50.046;10.314;2022-07-10T02:43:57;13.60;1.00
10543;DHT22;5320;50.046;10.314;2022-07-10T02:46:23;13.60;1.00
10543;DHT22;5320;50.046;10.314;2022-07-10T02:48:48;13.60;1.00
10543;DHT22;5320;50.046;10.314;2022-07-10T02:51:14;13.60;1.00
10543;DHT22;5320;50.046;10.314;2022-07-10T02:53:40;13.60;1.00
10543;DHT22;5320;50.046;10.314;2022-07-10T02:56:06;13.50;1.00
10543;DHT22;5320;50.046;10.314;2022-07-10T02:58:33;13.50;1.00
10543;DHT22;5320;50.046;10.314;2022-07-10T03:00:59;13.40;1.00
10543;DHT22;5320;50.046;10.314;2022-07-10T03:03:25;13.30;1.00
10543;DHT22;5320;50.046;10.314;2022-07-10T03:05:51;13.20;29.30
10543;DHT22;5320;50.046;10.314;2022-07-10T03:08:17;13.10;66.10
10543;DHT22;5320;50.046;10.314;2022-07-10T03:10:42;13.10;40.40
10543;DHT22;5320;50.046;10.314;2022-07-10T03:13:08;13.10;13.50
10543;DHT22;5320;50.046;10.314;2022-07-10T03:15:34;13.00;1.50
10543;DHT22;5320;50.046;10.314;2022-07-10T03:18:00;13.10;3.00
10543;DHT22;5320;50.046;10.314;2022-07-10T03:20:26;13.00;1.00
10543;DHT22;5320;50.046;10.314;2022-07-10T03:22:51;13.00;1.00
10543;DHT22;5320;50.046;10.314;2022-07-10T03:25:18;13.00;1.00
10543;DHT22;5320;50.046;10.314;2022-07-10T03:27:43;12.90;1.00
10543;DHT22;5320;50.046;10.314;2022-07-10T03:30:09;12.90;1.00
10543;DHT22;5320;50.046;10.314;2022-07-10T03:32:36;12.90;1.00
10543;DHT22;5320;50.046;10.314;2022-07-10T03:35:02;12.70;1.00
10543;DHT22;5320;50.046;10.314;2022-07-10T03:37:28;12.70;1.00
10543;DHT22;5320;50.046;10.314;2022-07-10T03:39:53;12.60;1.00
10543;DHT22;5320;50.046;10.314;2022-07-10T03:42:19;12.60;5.80
10543;DHT22;5320;50.046;10.314;2022-07-10T03:44:45;12.60;17.40
10543;DHT22;5320;50.046;10.314;2022-07-10T03:47:11;12.50;94.30
10543;DHT22;5320;50.046;10.314;2022-07-10T03:49:38;12.50;99.90
10543;DHT22;5320;50.046;10.314;2022-07-10T03:52:07;12.50;90.40
10543;DHT22;5320;50.046;10.314;2022-07-10T03:54:33;12.40;91.90
10543;DHT22;5320;50.046;10.314;2022-07-10T03:56:58;12.40;80.30
10543;DHT22;5320;50.046;10.314;2022-07-10T03:59:43;12.50;50.10
10543;DHT22;5320;50.046;10.314;2022-07-10T04:02:08;12.50;38.40
10543;DHT22;5320;50.046;10.314;2022-07-10T04:04:34;12.50;1.00
10543;DHT22;5320;50.046;10.314;2022-07-10T04:07:00;12.50;29.70
10543;DHT22;5320;50.046;10.314;2022-07-10T04:09:26;12.50;33.60
10543;DHT22;5320;50.046;10.314;2022-07-10T04:11:52;12.50;11.10
10543;DHT22;5320;50.046;10.314;2022-07-10T04:14:18;12.60;1.00
10543;DHT22;5320;50.046;10.314;2022-07-10T04:16:43;12.50;1.00
10543;DHT22;5320;50.046;10.314;2022-07-10T04:19:09;12.60;1.00
10543;DHT22;5320;50.046;10.314;2022-07-10T04:21:35;12.60;1.00
10543;DHT22;5320;50.046;10.314;2022-07-10T04:24:03;12.60;1.00
10543;DHT22;5320;50.046;10.314;2022-07-10T04:26:29;12.60;1.00
10543;DHT22;5320;50.046;10.314;2022-07-10T04:28:55;12.60;1.00
10543;DHT22;5320;50.046;10.314;2022-07-10T04:31:20;12.70;1.00
10543;DHT22;5320;50.046;10.314;2022-07-10T04:33:46;12.70;1.00
10543;DHT22;5320;50.046;10.314;2022-07-10T04:36:12;12.60;1.00
10543;DHT22;5320;50.046;10.314;2022-07-10T04:38:38;12.60;1.00
10543;DHT22;5320;50.046;10.314;2022-07-10T04:41:04;12.60;1.00
10543;DHT22;5320;50.046;10.314;2022-07-10T04:43:30;12.60;1.00
10543;DHT22;5320;50.046;10.314;2022-07-10T04:45:57;12.70;2.40
10543;DHT22;5320;50.046;10.314;2022-07-10T04:48:23;12.70;1.00
10543;DHT22;5320;50.046;10.314;2022-07-10T04:50:49;12.70;1.00
10543;DHT22;5320;50.046;10.314;2022-07-10T04:53:14;12.70;1.00
10543;DHT22;5320;50.046;10.314;2022-07-10T04:55:40;12.70;1.00
10543;DHT22;5320;50.046;10.314;2022-07-10T04:58:06;12.70;1.00
10543;DHT22;5320;50.046;10.314;2022-07-10T05:00:32;12.80;1.00
10543;DHT22;5320;50.046;10.314;2022-07-10T05:02:58;12.80;1.00
10543;DHT22;5320;50.046;10.314;2022-07-10T05:05:24;12.90;1.00
10543;DHT22;5320;50.046;10.314;2022-07-10T05:07:50;12.90;1.00
10543;DHT22;5320;50.046;10.314;2022-07-10T05:10:15;13.00;1.00
10543;DHT22;5320;50.046;10.314;2022-07-10T05:12:41;13.10;1.00
10543;DHT22;5320;50.046;10.314;2022-07-10T05:15:08;13.20;1.00
10543;DHT22;5320;50.046;10.314;2022-07-10T05:17:33;13.30;99.90
10543;DHT22;5320;50.046;10.314;2022-07-10T05:19:59;13.40;99.90
10543;DHT22;5320;50.046;10.314;2022-07-10T05:22:25;13.50;1.00
10543;DHT22;5320;50.046;10.314;2022-07-10T05:24:51;13.50;99.90
10543;DHT22;5320;50.046;10.314;2022-07-10T05:27:17;13.60;99.90
10543;DHT22;5320;50.046;10.314;2022-07-10T05:29:46;13.70;99.90
10543;DHT22;5320;50.046;10.314;2022-07-10T05:32:12;13.80;99.90
10543;DHT22;5320;50.046;10.314;2022-07-10T05:34:38;13.80;1.00
10543;DHT22;5320;50.046;10.314;2022-07-10T05:37:04;14.00;99.90
10543;DHT22;5320;50.046;10.314;2022-07-10T05:39:30;14.10;22.80
10543;DHT22;5320;50.046;10.314;2022-07-10T05:41:56;14.20;1.00
10543;DHT22;5320;50.046;10.314;2022-07-10T05:44:23;14.20;1.00
10543;DHT22;5320;50.046;10.314;2022-07-10T05:46:49;14.10;99.90
10543;DHT22;5320;50.046;10.314;2022-07-10T05:49:15;14.10;1.00
10543;DHT22;5320;50.046;10.314;2022-07-10T05:51:41;14.00;1.00
10543;DHT22;5320;50.046;10.314;2022-07-10T05:54:07;14.00;1.00
10543;DHT22;5320;50.046;10.314;2022-07-10T05:56:34;13.90;1.00
10543;DHT22;5320;50.046;10.314;2022-07-10T05:59:00;13.90;99.90
10543;DHT22;5320;50.046;10.314;2022-07-10T06:01:26;14.10;99.90
10543;DHT22;5320;50.046;10.314;2022-07-10T06:03:52;14.10;1.00
10543;DHT22;5320;50.046;10.314;2022-07-10T06:06:17;14.20;1.00
10543;DHT22;5320;50.046;10.314;2022-07-10T06:08:43;14.30;1.00
10543;DHT22;5320;50.046;10.314;2022-07-10T06:11:10;14.30;1.00
10543;DHT22;5320;50.046;10.314;2022-07-10T06:13:36;14.30;99.90
10543;DHT22;5320;50.046;10.314;2022-07-10T06:16:02;14.20;99.90
10543;DHT22;5320;50.046;10.314;2022-07-10T06:18:30;14.20;1.00
10543;DHT22;5320;50.046;10.314;2022-07-10T06:20:56;14.20;1.00
10543;DHT22;5320;50.046;10.314;2022-07-10T06:23:22;14.30;1.00
10543;DHT22;5320;50.046;10.314;2022-07-10T06:25:48;14.40;1.00
10543;DHT22;5320;50.046;10.314;2022-07-10T06:28:16;14.30;99.90
10543;DHT22;5320;50.046;10.314;2022-07-10T06:30:42;14.40;1.00
10543;DHT22;5320;50.046;10.314;2022-07-10T06:33:08;14.20;1.00
10543;DHT22;5320;50.046;10.314;2022-07-10T06:35:34;14.10;10.40
10543;DHT22;5320;50.046;10.314;2022-07-10T06:38:00;14.10;1.00
10543;DHT22;5320;50.046;10.314;2022-07-10T06:40:26;14.30;99.90
10543;DHT22;5320;50.046;10.314;2022-07-10T06:42:52;14.40;1.00
10543;DHT22;5320;50.046;10.314;2022-07-10T06:45:18;14.40;1.00
10543;DHT22;5320;50.046;10.314;2022-07-10T06:47:44;14.30;99.90
10543;DHT22;5320;50.046;10.314;2022-07-10T06:50:23;14.30;1.00
10543;DHT22;5320;50.046;10.314;2022-07-10T06:52:49;14.30;1.00
10543;DHT22;5320;50.046;10.314;2022-07-10T06:55:15;14.30;1.00
10543;DHT22;5320;50.046;10.314;2022-07-10T06:57:41;14.30;1.00
10543;DHT22;5320;50.046;10.314;2022-07-10T07:00:08;14.40;46.70
10543;DHT22;5320;50.046;10.314;2022-07-10T07:02:35;14.50;1.00
10543;DHT22;5320;50.046;10.314;2022-07-10T07:05:02;14.60;99.90
10543;DHT22;5320;50.046;10.314;2022-07-10T07:07:27;14.80;1.00
10543;DHT22;5320;50.046;10.314;2022-07-10T07:09:53;14.90;99.90
10543;DHT22;5320;50.046;10.314;2022-07-10T07:12:19;14.80;1.00
10543;DHT22;5320;50.046;10.314;2022-07-10T07:14:45;14.70;1.00
10543;DHT22;5320;50.046;10.314;2022-07-10T07:17:12;14.80;99.90
10543;DHT22;5320;50.046;10.314;2022-07-10T07:19:40;14.90;99.90
10543;DHT22;5320;50.046;10.314;2022-07-10T07:22:25;14.90;99.90
10543;DHT22;5320;50.046;10.314;2022-07-10T07:25:10;14.90;1.00
10543;DHT22;5320;50.046;10.314;2022-07-10T07:27:37;14.90;1.00
10543;DHT22;5320;50.046;10.314;2022-07-10T07:30:09;14.90;99.90
10543;DHT22;5320;50.046;10.314;2022-07-10T07:32:37;14.80;14.00
10543;DHT22;5320;50.046;10.314;2022-07-10T07:35:04;14.90;99.90
10543;DHT22;5320;50.046;10.314;2022-07-10T07:37:47;14.90;1.00
10543;DHT22;5320;50.046;10.314;2022-07-10T07:40:20;15.10;1.00
10543;DHT22;5320;50.046;10.314;2022-07-10T07:42:52;15.20;3.00
10543;DHT22;5320;50.046;10.314;2022-07-10T07:45:19;15.00;1.00
10543;DHT22;5320;50.046;10.314;2022-07-10T07:47:53;14.90;99.90
10543;DHT22;5320;50.046;10.314;2022-07-10T07:50:25;15.10;99.90
10543;DHT22;5320;50.046;10.314;2022-07-10T07:52:52;15.20;1.00
10543;DHT22;5320;50.046;10.314;2022-07-10T07:55:19;15.30;99.90
10543;DHT22;5320;50.046;10.314;2022-07-10T07:57:46;15.30;1.00
10543;DHT22;5320;50.046;10.314;2022-07-10T08:00:13;15.40;99.90
10543;DHT22;5320;50.046;10.314;2022-07-10T08:02:40;15.20;1.00
10543;DHT22;5320;50.046;10.314;2022-07-10T08:05:06;14.80;2.90
10543;DHT22;5320;50.046;10.314;2022-07-10T08:07:56;14.60;1.00
10543;DHT22;5320;50.046;10.314;2022-07-10T08:10:25;14.80;1.00
10543;DHT22;5320;50.046;10.314;2022-07-10T08:12:54;15.00;99.90
10543;DHT22;5320;50.046;10.314;2022-07-10T08:15:20;15.20;1.00
10543;DHT22;5320;50.046;10.314;2022-07-10T08:17:51;15.20;1.00
10543;DHT22;5320;50.046;10.314;2022-07-10T08:20:17;15.30;1.00
10543;DHT22;5320;50.046;10.314;2022-07-10T08:22:43;15.40;99.90
10543;DHT22;5320;50.046;10.314;2022-07-10T08:25:09;15.10;1.00
10543;DHT22;5320;50.046;10.314;2022-07-10T08:27:35;14.80;1.00
10543;DHT22;5320;50.046;10.314;2022-07-10T08:30:01;15.10;1.00
10543;DHT22;5320;50.046;10.314;2022-07-10T08:32:27;15.10;1.00
10543;DHT22;5320;50.046;10.314;2022-07-10T08:34:53;14.90;99.90
10543;DHT22;5320;50.046;10.314;2022-07-10T08:37:19;14.80;1.00
10543;DHT22;5320;50.046;10.314;2022-07-10T08:39:46;14.80;1.00
10543;DHT22;5320;50.046;10.314;2022-07-10T08:42:12;15.00;1.00
10543;DHT22;5320;50.046;10.314;2022-07-10T08:44:38;15.20;99.90
10543;DHT22;5320;50.046;10.314;2022-07-10T08:47:05;15.50;99.90
10543;DHT22;5320;50.046;10.314;2022-07-10T08:49:31;15.60;1.00
10543;DHT22;5320;50.046;10.314;2022-07-10T08:54:28;15.40;99.90
10543;DHT22;5320;50.046;10.314;2022-07-10T08:56:59;15.40;1.00
10543;DHT22;5320;50.046;10.314;2022-07-10T08:59:26;15.60;1.00
10543;DHT22;5320;50.046;10.314;2022-07-10T09:01:52;15.10;1.00
10543;DHT22;5320;50.046;10.314;2022-07-10T09:04:21;15.10;1.00
10543;DHT22;5320;50.046;10.314;2022-07-10T09:06:47;15.50;99.90
10543;DHT22;5320;50.046;10.314;2022-07-10T09:09:14;15.50;1.00
10543;DHT22;5320;50.046;10.314;2022-07-10T09:11:40;15.80;1.00
10543;DHT22;5320;50.046;10.314;2022-07-10T09:14:09;16.00;99.90
10543;DHT22;5320;50.046;10.314;2022-07-10T09:16:38;16.10;1.00
10543;DHT22;5320;50.046;10.314;2022-07-10T09:19:31;15.80;99.90
10543;DHT22;5320;50.046;10.314;2022-07-10T09:22:08;15.90;99.90
10543;DHT22;5320;50.046;10.314;2022-07-10T09:24:45;15.90;1.00
10543;DHT22;5320;50.046;10.314;2022-07-10T09:27:13;15.60;1.00
10543;DHT22;5320;50.046;10.314;2022-07-10T09:29:52;15.40;1.00
10543;DHT22;5320;50.046;10.314;2022-07-10T09:32:23;15.70;1.00
10543;DHT22;5320;50.046;10.314;2022-07-10T09:34:51;15.70;1.00
10543;DHT22;5320;50.046;10.314;2022-07-10T09:37:39;15.50;1.00
10543;DHT22;5320;50.046;10.314;2022-07-10T09:40:06;15.70;99.90
10543;DHT22;5320;50.046;10.314;2022-07-10T09:42:42;15.80;99.90
10543;DHT22;5320;50.046;10.314;2022-07-10T09:47:42;15.50;99.90
10543;DHT22;5320;50.046;10.314;2022-07-10T09:50:30;15.40;1.00
10543;DHT22;5320;50.046;10.314;2022-07-10T09:53:04;15.50;1.00
10543;DHT22;5320;50.046;10.314;2022-07-10T09:55:34;15.70;99.90
10543;DHT22;5320;50.046;10.314;2022-07-10T09:58:08;15.80;53.00
10543;DHT22;5320;50.046;10.314;2022-07-10T10:00:39;15.60;1.00
10543;DHT22;5320;50.046;10.314;2022-07-10T10:03:12;15.90;99.90
10543;DHT22;5320;50.046;10.314;2022-07-10T10:06:02;16.20;1.00
10543;DHT22;5320;50.046;10.314;2022-07-10T10:08:31;16.50;1.00
10543;DHT22;5320;50.046;10.314;2022-07-10T10:10:58;16.60;99.90
10543;DHT22;5320;50.046;10.314;2022-07-10T10:13:26;16.70;99.90
10543;DHT22;5320;50.046;10.314;2022-07-10T10:15:53;16.30;1.00
10543;DHT22;5320;50.046;10.314;2022-07-10T10:18:24;15.80;99.90
10543;DHT22;5320;50.046;10.314;2022-07-10T10:20:52;15.90;1.00
10543;DHT22;5320;50.046;10.314;2022-07-10T10:23:20;15.90;99.90
10543;DHT22;5320;50.046;10.314;2022-07-10T10:25:54;15.80;99.90
10543;DHT22;5320;50.046;10.314;2022-07-10T10:28:22;15.90;1.00
10543;DHT22;5320;50.046;10.314;2022-07-10T10:30:53;16.10;99.90
10543;DHT22;5320;50.046;10.314;2022-07-10T10:35:59;16.20;99.90
10543;DHT22;5320;50.046;10.314;2022-07-10T10:38:24;16.30;1.00
10543;DHT22;5320;50.046;10.314;2022-07-10T10:40:52;16.20;99.90
10543;DHT22;5320;50.046;10.314;2022-07-10T10:43:23;16.20;55.80
10543;DHT22;5320;50.046;10.314;2022-07-10T10:45:50;16.10;99.90
10543;DHT22;5320;50.046;10.314;2022-07-10T10:48:17;16.20;95.70
10543;DHT22;5320;50.046;10.314;2022-07-10T10:50:53;16.20;99.90
10543;DHT22;5320;50.046;10.314;2022-07-10T10:53:22;16.20;99.90
10543;DHT22;5320;50.046;10.314;2022-07-10T10:58:45;16.40;1.00
10543;DHT22;5320;50.046;10.314;2022-07-10T11:09:32;16.50;1.00
10543;DHT22;5320;50.046;10.314;2022-07-10T11:12:06;16.60;1.00
10543;DHT22;5320;50.046;10.314;2022-07-10T11:14:34;16.80;1.00
10543;DHT22;5320;50.046;10.314;2022-07-10T11:17:02;16.80;1.00
10543;DHT22;5320;50.046;10.314;2022-07-10T11:19:29;16.40;1.00
10543;DHT22;5320;50.046;10.314;2022-07-10T11:30:08;16.90;99.90
10543;DHT22;5320;50.046;10.314;2022-07-10T11:32:35;16.80;1.00
10543;DHT22;5320;50.046;10.314;2022-07-10T11:35:01;16.90;1.00
10543;DHT22;5320;50.046;10.314;2022-07-10T11:37:27;17.30;1.00
10543;DHT22;5320;50.046;10.314;2022-07-10T11:40:11;17.40;1.00
10543;DHT22;5320;50.046;10.314;2022-07-10T11:42:55;17.80;99.90
10543;DHT22;5320;50.046;10.314;2022-07-10T11:45:31;18.00;1.00
10543;DHT22;5320;50.046;10.314;2022-07-10T11:47:59;18.20;1.00
10543;DHT22;5320;50.046;10.314;2022-07-10T11:50:26;17.70;99.90
10543;DHT22;5320;50.046;10.314;2022-07-10T11:52:53;17.20;99.90
10543;DHT22;5320;50.046;10.314;2022-07-10T11:55:21;17.00;1.00
10543;DHT22;5320;50.046;10.314;2022-07-10T11:57:48;17.40;99.90
10543;DHT22;5320;50.046;10.314;2022-07-10T12:00:21;17.90;99.90
10543;DHT22;5320;50.046;10.314;2022-07-10T12:02:50;18.40;2.40
10543;DHT22;5320;50.046;10.314;2022-07-10T12:05:36;19.10;1.00
10543;DHT22;5320;50.046;10.314;2022-07-10T12:08:02;18.90;1.00
10543;DHT22;5320;50.046;10.314;2022-07-10T12:10:30;18.80;1.00
10543;DHT22;5320;50.046;10.314;2022-07-10T12:13:09;18.70;1.00
10543;DHT22;5320;50.046;10.314;2022-07-10T12:15:41;17.80;1.00
10543;DHT22;5320;50.046;10.314;2022-07-10T12:18:08;17.50;79.50
10543;DHT22;5320;50.046;10.314;2022-07-10T12:20:35;17.50;99.90
10543;DHT22;5320;50.046;10.314;2022-07-10T12:23:03;17.80;1.00
10543;DHT22;5320;50.046;10.314;2022-07-10T12:25:30;18.10;1.00
10543;DHT22;5320;50.046;10.314;2022-07-10T12:27:57;18.20;1.00
10543;DHT22;5320;50.046;10.314;2022-07-10T12:33:18;18.20;31.10
10543;DHT22;5320;50.046;10.314;2022-07-10T12:38:21;18.70;1.00
10543;DHT22;5320;50.046;10.314;2022-07-10T12:40:47;18.70;1.00
10543;DHT22;5320;50.046;10.314;2022-07-10T12:43:24;18.90;1.00
10543;DHT22;5320;50.046;10.314;2022-07-10T12:46:16;19.40;1.00
10543;DHT22;5320;50.046;10.314;2022-07-10T12:49:07;19.60;1.00
10543;DHT22;5320;50.046;10.314;2022-07-10T12:51:41;19.20;99.90
10543;DHT22;5320;50.046;10.314;2022-07-10T12:54:07;19.10;99.90
10543;DHT22;5320;50.046;10.314;2022-07-10T12:56:37;19.10;1.00
10543;DHT22;5320;50.046;10.314;2022-07-10T12:59:13;19.40;99.90
10543;DHT22;5320;50.046;10.314;2022-07-10T13:01:41;19.10;99.90
10543;DHT22;5320;50.046;10.314;2022-07-10T13:04:07;18.80;99.90
10543;DHT22;5320;50.046;10.314;2022-07-10T13:06:34;18.90;99.90
10543;DHT22;5320;50.046;10.314;2022-07-10T13:09:03;20.10;99.90
10543;DHT22;5320;50.046;10.314;2022-07-10T13:11:43;21.20;1.00
10543;DHT22;5320;50.046;10.314;2022-07-10T13:14:09;19.80;1.00
10543;DHT22;5320;50.046;10.314;2022-07-10T13:16:34;19.10;1.00
10543;DHT22;5320;50.046;10.314;2022-07-10T13:19:01;19.10;7.30
10543;DHT22;5320;50.046;10.314;2022-07-10T13:21:26;19.30;62.60
10543;DHT22;5320;50.046;10.314;2022-07-10T13:23:52;19.40;34.90
10543;DHT22;5320;50.046;10.314;2022-07-10T13:26:18;19.10;99.90
10543;DHT22;5320;50.046;10.314;2022-07-10T13:28:44;19.00;99.90
10543;DHT22;5320;50.046;10.314;2022-07-10T13:31:10;19.30;60.80
10543;DHT22;5320;50.046;10.314;2022-07-10T13:33:38;19.40;43.40
10543;DHT22;5320;50.046;10.314;2022-07-10T13:36:04;19.30;1.00
10543;DHT22;5320;50.046;10.314;2022-07-10T13:38:30;19.10;21.30
10543;DHT22;5320;50.046;10.314;2022-07-10T13:40:57;19.10;1.00
10543;DHT22;5320;50.046;10.314;2022-07-10T13:43:23;19.10;34.20
10543;DHT22;5320;50.046;10.314;2022-07-10T13:45:59;19.40;1.00
10543;DHT22;5320;50.046;10.314;2022-07-10T13:48:25;19.10;1.00
10543;DHT22;5320;50.046;10.314;2022-07-10T13:50:52;19.20;9.50
10543;DHT22;5320;50.046;10.314;2022-07-10T13:53:18;19.30;1.00
10543;DHT22;5320;50.046;10.314;2022-07-10T13:55:45;20.20;1.00
10543;DHT22;5320;50.046;10.314;2022-07-10T13:58:11;20.60;1.00
10543;DHT22;5320;50.046;10.314;2022-07-10T14:00:38;20.90;1.00
10543;DHT22;5320;50.046;10.314;2022-07-10T14:03:04;20.10;1.00
10543;DHT22;5320;50.046;10.314;2022-07-10T14:05:31;19.90;1.00
10543;DHT22;5320;50.046;10.314;2022-07-10T14:07:58;19.90;1.00
10543;DHT22;5320;50.046;10.314;2022-07-10T14:10:24;20.10;1.00
10543;DHT22;5320;50.046;10.314;2022-07-10T14:12:52;20.60;1.00
10543;DHT22;5320;50.046;10.314;2022-07-10T14:15:18;21.50;1.00
10543;DHT22;5320;50.046;10.314;2022-07-10T14:17:44;21.70;1.00
10543;DHT22;5320;50.046;10.314;2022-07-10T14:20:11;21.50;1.00
10543;DHT22;5320;50.046;10.314;2022-07-10T14:22:37;21.60;1.00
10543;DHT22;5320;50.046;10.314;2022-07-10T14:25:05;22.10;1.00
10543;DHT22;5320;50.046;10.314;2022-07-10T14:27:31;22.40;1.00
10543;DHT22;5320;50.046;10.314;2022-07-10T14:29:58;22.30;1.00
10543;DHT22;5320;50.046;10.314;2022-07-10T14:32:24;21.60;1.00
10543;DHT22;5320;50.046;10.314;2022-07-10T14:34:50;21.80;1.00
10543;DHT22;5320;50.046;10.314;2022-07-10T14:37:16;21.20;1.00
10543;DHT22;5320;50.046;10.314;2022-07-10T14:39:42;20.20;1.00
10543;DHT22;5320;50.046;10.314;2022-07-10T14:42:08;20.50;1.00
10543;DHT22;5320;50.046;10.314;2022-07-10T14:44:35;20.60;1.00
10543;DHT22;5320;50.046;10.314;2022-07-10T14:47:01;20.90;1.00
10543;DHT22;5320;50.046;10.314;2022-07-10T14:49:27;21.00;1.00
10543;DHT22;5320;50.046;10.314;2022-07-10T14:51:53;20.70;1.00
10543;DHT22;5320;50.046;10.314;2022-07-10T14:54:20;20.90;1.00
10543;DHT22;5320;50.046;10.314;2022-07-10T14:56:46;20.50;1.00
10543;DHT22;5320;50.046;10.314;2022-07-10T14:59:12;20.40;1.00
10543;DHT22;5320;50.046;10.314;2022-07-10T15:01:37;20.80;1.00
10543;DHT22;5320;50.046;10.314;2022-07-10T15:04:03;21.10;1.00
10543;DHT22;5320;50.046;10.314;2022-07-10T15:06:29;21.50;1.00
10543;DHT22;5320;50.046;10.314;2022-07-10T15:08:55;21.30;1.00
10543;DHT22;5320;50.046;10.314;2022-07-10T15:11:21;21.40;1.00
10543;DHT22;5320;50.046;10.314;2022-07-10T15:13:51;21.50;1.00
10543;DHT22;5320;50.046;10.314;2022-07-10T15:16:18;21.60;1.00
10543;DHT22;5320;50.046;10.314;2022-07-10T15:18:45;20.50;1.00
10543;DHT22;5320;50.046;10.314;2022-07-10T15:21:11;20.80;1.00
10543;DHT22;5320;50.046;10.314;2022-07-10T15:23:37;21.00;1.00
10543;DHT22;5320;50.046;10.314;2022-07-10T15:26:03;20.30;1.00
10543;DHT22;5320;50.046;10.314;2022-07-10T15:28:30;20.30;1.00
10543;DHT22;5320;50.046;10.314;2022-07-10T15:30:56;20.40;1.00
10543;DHT22;5320;50.046;10.314;2022-07-10T15:33:21;20.10;1.00
10543;DHT22;5320;50.046;10.314;2022-07-10T15:35:47;19.90;1.00
10543;DHT22;5320;50.046;10.314;2022-07-10T15:38:13;19.90;1.00
10543;DHT22;5320;50.046;10.314;2022-07-10T15:40:40;19.80;1.00
10543;DHT22;5320;50.046;10.314;2022-07-10T15:43:05;19.40;1.00
10543;DHT22;5320;50.046;10.314;2022-07-10T15:45:31;19.80;1.00
10543;DHT22;5320;50.046;10.314;2022-07-10T15:47:57;19.90;1.00
10543;DHT22;5320;50.046;10.314;2022-07-10T15:50:23;19.60;1.00
10543;DHT22;5320;50.046;10.314;2022-07-10T15:52:49;19.60;1.00
10543;DHT22;5320;50.046;10.314;2022-07-10T15:55:15;19.30;1.00
10543;DHT22;5320;50.046;10.314;2022-07-10T15:57:41;19.10;1.00
10543;DHT22;5320;50.046;10.314;2022-07-10T16:00:08;19.30;11.00
10543;DHT22;5320;50.046;10.314;2022-07-10T16:02:35;19.20;8.50
10543;DHT22;5320;50.046;10.314;2022-07-10T16:05:01;19.20;83.70
10543;DHT22;5320;50.046;10.314;2022-07-10T16:07:27;19.30;55.20
10543;DHT22;5320;50.046;10.314;2022-07-10T16:09:52;19.20;32.30
10543;DHT22;5320;50.046;10.314;2022-07-10T16:12:18;19.40;68.30
10543;DHT22;5320;50.046;10.314;2022-07-10T16:14:44;19.40;30.40
10543;DHT22;5320;50.046;10.314;2022-07-10T16:17:10;19.40;99.90